Flight Track Log - Related Links

Times and Time Zones

All times are in EDT time to prevent confusion due to time zone crossing. See the EJA831 flight status page for this flight to view local times or setup timezone preferences in your user account.

Time Position Orientation Groundspeed Altitude Reporting Facility
EDT Latitude Longitude Course Direction KTS MPH feet Rate Location/Type
Thu 09:22:04 AM 43.0500 -88.2667 212° Southwest 184 212 1,800  Level KMKE
Thu 09:23:20 AM 42.9981 -88.3117 212° Southwest 243 280 4,000 957 Climbing Chicago Center
Thu 09:24:22 AM 42.9314 -88.2819 162° South 250 288 4,000  Level Chicago Center
Thu 09:25:25 AM 42.8581 -88.2492 162° South 269 310 4,000  Level Chicago Center
Thu 09:26:27 AM 42.7828 -88.2139 161° South 282 325 4,000  Level Chicago Center
Thu 09:27:29 AM 42.7308 -88.1397 134° Southeast 277 319 4,000  Level Chicago Center
Thu 09:28:31 AM 42.6833 -88.0417 123° Southeast 269 310 4,000  Level Chicago Center
Thu 09:29:33 AM 42.6431 -87.9569 123° Southeast 268 308 4,000  Level Chicago Center
Thu 09:30:35 AM 42.6039 -87.8744 123° Southeast 262 302 4,000 -48 Level Chicago Center
Thu 09:31:37 AM 42.5575 -87.8017 131° Southeast 265 305 3,900 -48 Descending Chicago Center
Thu 09:32:39 AM 42.4853 -87.7692 162° South 273 314 3,900  Level Chicago Center
Thu 09:33:41 AM 42.4014 -87.7289 160° South 273 314 3,900 48 Level Chicago Center
Thu 09:34:44 AM 42.3306 -87.6936 160° South 272 313 4,000 48 Climbing Chicago Center
Thu 09:35:46 AM 42.2558 -87.6578 160° South 278 320 4,000  Level Chicago Center
Thu 09:36:48 AM 42.1878 -87.6142 155° Southeast 273 314 4,000  Level Chicago Center
Thu 09:37:50 AM 42.1214 -87.5653 151° Southeast 273 314 4,000  Level Chicago Center
Thu 09:38:52 AM 42.0461 -87.5536 173° South 281 323 4,000  Level Chicago Center
Thu 09:39:54 AM 41.9700 -87.5494 178° South 277 319 4,000  Level Chicago Center
Thu 09:40:56 AM 41.8767 -87.5472 179° South 278 320 4,000  Level Chicago Center
Thu 09:41:58 AM 41.8011 -87.5658 190° South 283 326 4,000  Level Chicago Center
Thu 09:43:00 AM 41.7372 -87.6219 213° Southwest 278 320 4,000  Level Chicago Center
Thu 09:44:02 AM 41.6919 -87.7033 233° Southwest 277 319 4,000 -581 Level Chicago Center
Thu 09:45:04 AM 41.6503 -87.7764 233° Southwest 264 304 2,800 -720 Descending Chicago Center
Thu 09:46:07 AM 41.6711 -87.8397 294° West 218 251 2,500 -144 Descending Chicago Center
Thu 09:47:09 AM 41.7097 -87.8486 350° North 187 215 2,500 -387 Level Chicago Center
Thu 09:48:11 AM 41.7397 -87.8131 41° Northeast 159 183 1,700 -677 Descending Chicago Center
Thu 09:49:13 AM 41.7644 -87.7844 41° Northeast 136 157 1,100 -387 Descending Chicago Center
Thu 09:50:15 AM 41.7894 -87.7522 44° Northeast 127 146 900 -194 Descending Chicago Center

Login

Don't have an account? Register now (free) for customized features, flight alerts, and more!